Time,TemperatureF,DewpointF,PressureIn,WindDirection,WindDirectionDegrees,WindSpeedMPH,WindSpeedGustMPH,Humidity,HourlyPrecipIn,Conditions,Clouds,dailyrainin,SoftwareType,DateUTC
2013-02-11 00:00:00,46.0,41.1,29.90,SSE,151,9.0,10.0,83,0.00,,,0.02,Wunderground v.1.13,2013-02-11 05:00:00,
2013-02-11 00:05:00,46.0,41.1,29.90,SE,146,9.0,9.0,83,0.00,,,0.02,Wunderground v.1.13,2013-02-11 05:05:00,
2013-02-11 00:10:00,45.8,41.2,29.90,SSE,157,9.0,9.0,84,0.00,,,0.00,Wunderground v.1.13,2013-02-11 05:10:00,
2013-02-11 00:15:00,45.8,41.2,29.90,SE,142,9.0,9.0,84,0.00,,,0.00,Wunderground v.1.13,2013-02-11 05:15:00,
2013-02-11 00:20:00,45.8,41.2,29.90,SE,136,9.0,14.0,84,0.00,,,0.00,Wunderground v.1.13,2013-02-11 05:20:00,
2013-02-11 00:25:00,45.8,41.2,29.89,SSE,163,9.0,9.0,84,0.00,,,0.00,Wunderground v.1.13,2013-02-11 05:25:00,
2013-02-11 00:35:00,45.7,41.1,29.89,SE,144,10.0,10.0,84,0.00,,,0.00,Wunderground v.1.13,2013-02-11 05:35:00,
2013-02-11 00:40:00,45.8,41.5,29.89,SE,144,10.0,10.0,85,0.00,,,0.00,Wunderground v.1.13,2013-02-11 05:40:00,
2013-02-11 00:45:00,45.9,41.6,29.89,SSE,151,11.0,11.0,85,0.00,,,0.00,Wunderground v.1.13,2013-02-11 05:45:00,
2013-02-11 00:50:00,45.9,41.6,29.88,SSE,153,11.0,14.0,85,0.00,,,0.00,Wunderground v.1.13,2013-02-11 05:50:00,
2013-02-11 00:55:00,46.0,41.7,29.88,SSE,149,10.0,13.0,85,0.00,,,0.00,Wunderground v.1.13,2013-02-11 05:55:00,
2013-02-11 01:00:00,46.1,41.8,29.87,SSE,155,12.0,12.0,85,0.00,,,0.00,Wunderground v.1.13,2013-02-11 06:00:00,
2013-02-11 01:10:00,46.1,41.8,29.87,SE,133,10.0,11.0,85,0.00,,,0.00,Wunderground v.1.13,2013-02-11 06:10:00,
2013-02-11 01:15:00,46.0,41.7,29.87,SSE,167,10.0,10.0,85,0.00,,,0.00,Wunderground v.1.13,2013-02-11 06:15:00,
2013-02-11 01:20:00,46.0,41.7,29.86,SSE,156,9.0,9.0,85,0.00,,,0.00,Wunderground v.1.13,2013-02-11 06:20:00,
2013-02-11 01:25:00,46.0,41.7,29.86,SE,139,9.0,9.0,85,0.00,,,0.00,Wunderground v.1.13,2013-02-11 06:25:00,
2013-02-11 01:30:00,46.1,41.8,29.86,SSE,147,10.0,10.0,85,0.00,,,0.00,Wunderground v.1.13,2013-02-11 06:30:00,
2013-02-11 01:40:00,46.3,42.3,29.86,SSE,151,9.0,10.0,86,0.00,,,0.00,Wunderground v.1.13,2013-02-11 06:40:00,
2013-02-11 01:45:00,46.2,42.2,29.86,SSE,165,10.0,10.0,86,0.00,,,0.00,Wunderground v.1.13,2013-02-11 06:45:00,
2013-02-11 01:50:00,46.1,42.1,29.85,SSE,159,8.0,10.0,86,0.00,,,0.00,Wunderground v.1.13,2013-02-11 06:50:00,
2013-02-11 01:55:00,46.2,42.2,29.86,SSE,153,8.0,8.0,86,0.00,,,0.00,Wunderground v.1.13,2013-02-11 06:55:00,
2013-02-11 02:00:00,46.3,42.3,29.86,SSE,163,9.0,9.0,86,0.00,,,0.00,Wunderground v.1.13,2013-02-11 07:00:00,
2013-02-11 02:05:00,46.1,42.4,29.86,SSE,153,8.0,8.0,87,0.00,,,0.00,Wunderground v.1.13,2013-02-11 07:05:00,
2013-02-11 02:15:00,46.0,42.6,29.86,SSE,157,8.0,9.0,88,0.00,,,0.00,Wunderground v.1.13,2013-02-11 07:15:00,
2013-02-11 02:20:00,45.9,42.5,29.86,SSE,157,8.0,8.0,88,0.00,,,0.00,Wunderground v.1.13,2013-02-11 07:20:00,
2013-02-11 02:25:00,46.0,42.6,29.86,SSE,163,8.0,8.0,88,0.00,,,0.00,Wunderground v.1.13,2013-02-11 07:25:00,
2013-02-11 02:30:00,45.9,42.8,29.86,SSE,148,8.0,11.0,89,0.00,,,0.00,Wunderground v.1.13,2013-02-11 07:30:00,
2013-02-11 02:35:00,45.9,42.8,29.86,SSE,154,8.0,8.0,89,0.00,,,0.00,Wunderground v.1.13,2013-02-11 07:35:00,
2013-02-11 02:45:00,45.8,43.0,29.86,SSE,153,10.0,12.0,90,0.00,,,0.00,Wunderground v.1.13,2013-02-11 07:45:00,
2013-02-11 02:50:00,45.9,43.1,29.86,SSE,163,10.0,10.0,90,0.00,,,0.00,Wunderground v.1.13,2013-02-11 07:50:00,
2013-02-11 02:55:00,46.0,43.2,29.86,South,174,9.0,11.0,90,0.00,,,0.00,Wunderground v.1.13,2013-02-11 07:55:00,
2013-02-11 03:00:00,46.0,43.2,29.85,SSE,149,9.0,9.0,90,0.00,,,0.00,Wunderground v.1.13,2013-02-11 08:00:00,
2013-02-11 03:05:00,46.1,43.3,29.85,SSE,153,8.0,10.0,90,0.00,,,0.00,Wunderground v.1.13,2013-02-11 08:05:00,
2013-02-11 03:15:00,46.2,43.4,29.85,SSE,155,8.0,8.0,90,0.00,,,0.00,Wunderground v.1.13,2013-02-11 08:15:00,
2013-02-11 03:20:00,46.3,43.5,29.84,SSE,158,8.0,8.0,90,0.00,,,0.00,Wunderground v.1.13,2013-02-11 08:20:00,
2013-02-11 03:25:00,46.4,43.6,29.84,SSE,150,7.0,10.0,90,0.00,,,0.00,Wunderground v.1.13,2013-02-11 08:25:00,
2013-02-11 03:30:00,46.6,43.8,29.84,SSE,157,7.0,7.0,90,0.00,,,0.00,Wunderground v.1.13,2013-02-11 08:30:00,
2013-02-11 03:35:00,46.7,43.9,29.84,SSE,150,7.0,8.0,90,0.00,,,0.00,Wunderground v.1.13,2013-02-11 08:35:00,
2013-02-11 03:40:00,46.8,44.0,29.84,SSE,157,7.0,9.0,90,0.00,,,0.00,Wunderground v.1.13,2013-02-11 08:40:00,
2013-02-11 03:45:00,46.8,44.0,29.83,SSE,148,8.0,8.0,90,0.00,,,0.00,Wunderground v.1.13,2013-02-11 08:45:00,
2013-02-11 03:50:00,46.9,44.1,29.83,SSE,148,7.0,8.0,90,0.00,,,0.00,Wunderground v.1.13,2013-02-11 08:50:00,
2013-02-11 03:55:00,47.1,44.6,29.82,SSE,159,7.0,8.0,91,0.00,,,0.00,Wunderground v.1.13,2013-02-11 08:55:00,
2013-02-11 04:05:00,47.2,44.7,29.82,SSE,153,6.0,8.0,91,0.00,,,0.00,Wunderground v.1.13,2013-02-11 09:05:00,
2013-02-11 04:10:00,47.3,44.8,29.83,SSE,165,7.0,7.0,91,0.00,,,0.00,Wunderground v.1.13,2013-02-11 09:10:00,
2013-02-11 04:15:00,47.4,44.9,29.82,SSE,163,7.0,9.0,91,0.00,,,0.00,Wunderground v.1.13,2013-02-11 09:15:00,
2013-02-11 04:20:00,47.4,44.9,29.82,SSE,165,7.0,7.0,91,0.00,,,0.00,Wunderground v.1.13,2013-02-11 09:20:00,
2013-02-11 04:25:00,47.3,44.8,29.82,SSE,161,7.0,7.0,91,0.00,,,0.00,Wunderground v.1.13,2013-02-11 09:25:00,
2013-02-11 04:30:00,47.4,44.9,29.82,SSE,168,7.0,9.0,91,0.00,,,0.00,Wunderground v.1.13,2013-02-11 09:30:00,
2013-02-11 04:40:00,47.5,45.0,29.82,South,173,7.0,8.0,91,0.00,,,0.00,Wunderground v.1.13,2013-02-11 09:40:00,
2013-02-11 04:45:00,47.6,45.1,29.82,South,169,8.0,8.0,91,0.00,,,0.00,Wunderground v.1.13,2013-02-11 09:45:00,
2013-02-11 04:50:00,47.6,45.1,29.82,South,175,7.0,7.0,91,0.00,,,0.00,Wunderground v.1.13,2013-02-11 09:50:00,
2013-02-11 04:55:00,47.3,44.8,29.82,SSE,159,5.0,7.0,91,0.00,,,0.00,Wunderground v.1.13,2013-02-11 09:55:00,
2013-02-11 05:00:00,47.2,44.7,29.82,SSE,159,5.0,6.0,91,0.00,,,0.00,Wunderground v.1.13,2013-02-11 10:00:00,
2013-02-11 05:10:00,47.2,44.7,29.82,SSE,165,5.0,5.0,91,0.00,,,0.00,Wunderground v.1.13,2013-02-11 10:10:00,
2013-02-11 05:15:00,47.2,44.7,29.82,SSE,153,5.0,9.0,91,0.00,,,0.00,Wunderground v.1.13,2013-02-11 10:15:00,
2013-02-11 05:20:00,47.2,44.7,29.82,SSE,150,7.0,8.0,91,0.00,,,0.00,Wunderground v.1.13,2013-02-11 10:20:00,
2013-02-11 05:25:00,47.2,44.7,29.81,SSE,148,8.0,9.0,91,0.00,,,0.00,Wunderground v.1.13,2013-02-11 10:25:00,
2013-02-11 05:30:00,47.2,44.7,29.81,SSE,153,7.0,7.0,91,0.00,,,0.00,Wunderground v.1.13,2013-02-11 10:30:00,
2013-02-11 05:35:00,47.3,44.8,29.80,SSE,157,8.0,8.0,91,0.00,,,0.00,Wunderground v.1.13,2013-02-11 10:35:00,
2013-02-11 05:45:00,47.2,44.7,29.80,SSE,161,7.0,7.0,91,0.00,,,0.00,Wunderground v.1.13,2013-02-11 10:45:00,
2013-02-11 05:50:00,47.0,44.2,29.80,South,169,6.0,6.0,90,0.00,,,0.00,Wunderground v.1.13,2013-02-11 10:50:00,
2013-02-11 05:55:00,46.8,44.3,29.80,SSE,161,5.0,5.0,91,0.00,,,0.00,Wunderground v.1.13,2013-02-11 10:55:00,
2013-02-11 06:00:00,47.0,44.8,29.80,SSE,162,6.0,7.0,92,0.00,,,0.00,Wunderground v.1.13,2013-02-11 11:00:00,
2013-02-11 06:05:00,47.1,44.9,29.80,South,179,6.0,6.0,92,0.00,,,0.00,Wunderground v.1.13,2013-02-11 11:05:00,
2013-02-11 06:15:00,47.2,44.7,29.79,South,170,7.0,8.0,91,0.00,,,0.00,Wunderground v.1.13,2013-02-11 11:15:00,
2013-02-11 06:20:00,47.1,44.9,29.79,South,182,6.0,6.0,92,0.00,,,0.00,Wunderground v.1.13,2013-02-11 11:20:00,
2013-02-11 06:25:00,47.0,44.5,29.79,South,178,6.0,6.0,91,0.00,,,0.00,Wunderground v.1.13,2013-02-11 11:25:00,
2013-02-11 06:30:00,47.2,45.0,29.80,South,170,5.0,5.0,92,0.00,,,0.00,Wunderground v.1.13,2013-02-11 11:30:00,
2013-02-11 06:35:00,47.3,45.1,29.80,South,177,5.0,5.0,92,0.00,,,0.00,Wunderground v.1.13,2013-02-11 11:35:00,
2013-02-11 06:40:00,47.2,44.7,29.80,South,173,5.0,5.0,91,0.00,,,0.00,Wunderground v.1.13,2013-02-11 11:40:00,
2013-02-11 06:45:00,46.8,44.3,29.79,SSE,167,5.0,6.0,91,0.00,,,0.00,Wunderground v.1.13,2013-02-11 11:45:00,
2013-02-11 06:50:00,46.6,44.1,29.80,SSE,167,5.0,5.0,91,0.00,,,0.00,Wunderground v.1.13,2013-02-11 11:50:00,
2013-02-11 06:55:00,46.4,44.2,29.80,SSE,164,5.0,5.0,92,0.00,,,0.00,Wunderground v.1.13,2013-02-11 11:55:00,
2013-02-11 07:00:00,46.3,44.1,29.80,SSE,163,5.0,7.0,92,0.00,,,0.00,Wunderground v.1.13,2013-02-11 12:00:00,
2013-02-11 07:05:00,46.3,44.1,29.80,SSE,163,4.0,4.0,92,0.00,,,0.00,Wunderground v.1.13,2013-02-11 12:05:00,
2013-02-11 07:10:00,46.4,44.2,29.80,SSE,157,5.0,5.0,92,0.00,,,0.00,Wunderground v.1.13,2013-02-11 12:10:00,
2013-02-11 07:15:00,46.5,44.3,29.80,SSE,155,6.0,6.0,92,0.00,,,0.00,Wunderground v.1.13,2013-02-11 12:15:00,
2013-02-11 07:20:00,46.6,44.4,29.80,SSE,152,7.0,7.0,92,0.00,,,0.00,Wunderground v.1.13,2013-02-11 12:20:00,
2013-02-11 07:25:00,46.7,44.5,29.79,SSE,160,7.0,7.0,92,0.00,,,0.00,Wunderground v.1.13,2013-02-11 12:25:00,
2013-02-11 07:30:00,46.9,44.7,29.79,South,171,7.0,8.0,92,0.00,,,0.00,Wunderground v.1.13,2013-02-11 12:30:00,
2013-02-11 07:35:00,47.2,45.0,29.79,South,178,7.0,7.0,92,0.00,,,0.00,Wunderground v.1.13,2013-02-11 12:35:00,
2013-02-11 07:45:00,47.7,45.2,29.79,South,171,7.0,8.0,91,0.00,,,0.00,Wunderground v.1.13,2013-02-11 12:45:00,
2013-02-11 07:50:00,47.8,45.3,29.79,SSE,167,7.0,7.0,91,0.00,,,0.00,Wunderground v.1.13,2013-02-11 12:50:00,
2013-02-11 07:55:00,47.8,45.3,29.79,South,169,7.0,7.0,91,0.00,,,0.00,Wunderground v.1.13,2013-02-11 12:55:00,
2013-02-11 08:05:00,48.1,45.6,29.79,South,176,7.0,9.0,91,0.00,,,0.00,Wunderground v.1.13,2013-02-11 13:05:00,
2013-02-11 08:10:00,48.6,46.1,29.79,SSE,168,7.0,9.0,91,0.00,,,0.00,Wunderground v.1.13,2013-02-11 13:10:00,
2013-02-11 08:15:00,48.9,46.1,29.79,South,188,8.0,8.0,90,0.00,,,0.00,Wunderground v.1.13,2013-02-11 13:15:00,
2013-02-11 08:20:00,49.4,46.3,29.79,SSW,202,8.0,10.0,89,0.00,,,0.00,Wunderground v.1.13,2013-02-11 13:20:00,
2013-02-11 08:25:00,50.1,46.7,29.79,South,185,7.0,10.0,88,0.00,,,0.00,Wunderground v.1.13,2013-02-11 13:25:00,
2013-02-11 08:35:00,51.3,46.6,29.80,SSW,200,10.0,10.0,84,0.00,,,0.00,Wunderground v.1.13,2013-02-11 13:35:00,
2013-02-11 08:40:00,51.4,45.8,29.79,SSW,196,12.0,15.0,81,0.00,,,0.00,Wunderground v.1.13,2013-02-11 13:40:00,
2013-02-11 08:45:00,51.7,45.7,29.79,South,190,14.0,14.0,80,0.00,,,0.00,Wunderground v.1.13,2013-02-11 13:45:00,
2013-02-11 08:50:00,51.9,46.3,29.79,South,190,13.0,15.0,81,0.00,,,0.00,Wunderground v.1.13,2013-02-11 13:50:00,
2013-02-11 09:00:00,52.2,46.2,29.79,SSW,207,10.0,16.0,80,0.00,,,0.00,Wunderground v.1.13,2013-02-11 14:00:00,
2013-02-11 09:05:00,52.2,45.9,29.79,SSW,202,12.0,12.0,79,0.00,,,0.00,Wunderground v.1.13,2013-02-11 14:05:00,
2013-02-11 09:10:00,52.4,45.7,29.79,SSW,203,13.0,14.0,78,0.00,,,0.00,Wunderground v.1.13,2013-02-11 14:10:00,
2013-02-11 09:15:00,52.7,45.3,29.79,SSW,211,14.0,18.0,76,0.00,,,0.00,Wunderground v.1.13,2013-02-11 14:15:00,
2013-02-11 09:20:00,52.8,45.1,29.79,South,182,16.0,16.0,75,0.00,,,0.00,Wunderground v.1.13,2013-02-11 14:20:00,
2013-02-11 09:25:00,52.7,44.3,29.79,South,186,17.0,17.0,73,0.00,,,0.00,Wunderground v.1.13,2013-02-11 14:25:00,
2013-02-11 09:30:00,52.5,44.1,29.79,SSW,200,16.0,16.0,73,0.00,,,0.00,Wunderground v.1.13,2013-02-11 14:30:00,
2013-02-11 09:35:00,52.4,44.0,29.79,SSW,206,15.0,15.0,73,0.00,,,0.00,Wunderground v.1.13,2013-02-11 14:35:00,
2013-02-11 09:40:00,52.4,44.0,29.79,SSW,205,14.0,14.0,73,0.00,,,0.00,Wunderground v.1.13,2013-02-11 14:40:00,
2013-02-11 09:45:00,52.4,44.0,29.79,SW,215,15.0,23.0,73,0.00,,,0.00,Wunderground v.1.13,2013-02-11 14:45:00,
2013-02-11 09:50:00,52.4,43.3,29.79,SSW,211,17.0,17.0,71,0.00,,,0.00,Wunderground v.1.13,2013-02-11 14:50:00,
2013-02-11 09:55:00,52.8,43.7,29.79,South,188,15.0,20.0,71,0.00,,,0.00,Wunderground v.1.13,2013-02-11 14:55:00,
2013-02-11 10:05:00,53.7,41.0,29.79,SW,225,17.0,17.0,62,0.00,,,0.00,Wunderground v.1.13,2013-02-11 15:05:00,
2013-02-11 10:10:00,54.0,40.4,29.79,WNW,298,15.0,22.0,60,0.00,,,0.00,Wunderground v.1.13,2013-02-11 15:10:00,
2013-02-11 10:15:00,53.7,39.7,29.80,South,188,16.0,29.0,59,0.00,,,0.00,Wunderground v.1.13,2013-02-11 15:15:00,
2013-02-11 10:20:00,53.5,39.5,29.79,WSW,238,19.0,19.0,59,0.00,,,0.00,Wunderground v.1.13,2013-02-11 15:20:00,
2013-02-11 10:25:00,53.3,39.8,29.80,SW,218,18.0,18.0,60,0.00,,,0.00,Wunderground v.1.13,2013-02-11 15:25:00,
2013-02-11 10:30:00,53.3,40.2,29.79,South,180,17.0,17.0,61,0.00,,,0.00,Wunderground v.1.13,2013-02-11 15:30:00,
2013-02-11 10:40:00,53.6,40.5,29.79,South,172,15.0,15.0,61,0.00,,,0.00,Wunderground v.1.13,2013-02-11 15:40:00,
2013-02-11 10:45:00,53.5,39.9,29.80,SSW,209,16.0,16.0,60,0.00,,,0.00,Wunderground v.1.13,2013-02-11 15:45:00,
2013-02-11 10:50:00,53.6,40.0,29.79,SSW,201,17.0,19.0,60,0.00,,,0.00,Wunderground v.1.13,2013-02-11 15:50:00,
2013-02-11 10:55:00,53.4,38.5,29.79,SW,219,18.0,18.0,57,0.00,,,0.00,Wunderground v.1.13,2013-02-11 15:55:00,
2013-02-11 11:00:00,53.3,38.4,29.80,SW,234,19.0,19.0,57,0.00,,,0.00,Wunderground v.1.13,2013-02-11 16:00:00,
2013-02-11 11:10:00,53.0,38.6,29.80,South,186,16.0,16.0,58,0.00,,,0.00,Wunderground v.1.13,2013-02-11 16:10:00,
2013-02-11 11:15:00,52.0,36.8,29.80,South,182,14.0,14.0,56,0.00,,,0.00,Wunderground v.1.13,2013-02-11 16:15:00,
2013-02-11 11:20:00,51.9,37.1,29.80,South,176,14.0,20.0,57,0.00,,,0.00,Wunderground v.1.13,2013-02-11 16:20:00,
2013-02-11 11:25:00,52.4,36.2,29.81,SSW,196,14.0,25.0,54,0.00,,,0.00,Wunderground v.1.13,2013-02-11 16:25:00,
2013-02-11 11:35:00,52.7,34.6,29.80,SSW,199,18.0,20.0,50,0.00,,,0.00,Wunderground v.1.13,2013-02-11 16:35:00,
2013-02-11 11:40:00,52.6,35.0,29.80,South,180,19.0,19.0,51,0.00,,,0.00,Wunderground v.1.13,2013-02-11 16:40:00,
2013-02-11 11:45:00,52.7,35.6,29.80,South,183,19.0,19.0,52,0.00,,,0.00,Wunderground v.1.13,2013-02-11 16:45:00,
2013-02-11 11:50:00,53.1,37.3,29.81,West,261,16.0,16.0,55,0.00,,,0.00,Wunderground v.1.13,2013-02-11 16:50:00,
2013-02-11 11:55:00,53.2,37.4,29.81,SSW,209,11.0,12.0,55,0.00,,,0.00,Wunderground v.1.13,2013-02-11 16:55:00,
2013-02-11 12:00:00,53.2,37.0,29.81,SSE,164,8.0,8.0,54,0.00,,,0.00,Wunderground v.1.13,2013-02-11 17:00:00,
2013-02-11 12:05:00,52.9,36.2,29.82,SW,225,9.0,9.0,53,0.00,,,0.00,Wunderground v.1.13,2013-02-11 17:05:00,
2013-02-11 12:10:00,52.6,36.9,29.81,SSW,205,9.0,9.0,55,0.00,,,0.00,Wunderground v.1.13,2013-02-11 17:10:00,
2013-02-11 12:20:00,52.6,35.9,29.82,South,174,11.0,11.0,53,0.00,,,0.00,Wunderground v.1.13,2013-02-11 17:20:00,
2013-02-11 12:25:00,52.9,35.7,29.81,SSE,163,9.0,17.0,52,0.00,,,0.00,Wunderground v.1.13,2013-02-11 17:25:00,
2013-02-11 12:30:00,52.5,34.9,29.81,SSW,201,10.0,10.0,51,0.00,,,0.00,Wunderground v.1.13,2013-02-11 17:30:00,
2013-02-11 12:35:00,52.3,34.7,29.81,SSW,196,11.0,11.0,51,0.00,,,0.00,Wunderground v.1.13,2013-02-11 17:35:00,
2013-02-11 12:40:00,52.2,35.1,29.81,South,174,10.0,14.0,52,0.00,,,0.00,Wunderground v.1.13,2013-02-11 17:40:00,
2013-02-11 12:50:00,52.2,34.6,29.81,SW,217,10.0,13.0,51,0.00,,,0.00,Wunderground v.1.13,2013-02-11 17:50:00,
2013-02-11 12:55:00,52.2,34.6,29.81,West,267,9.0,9.0,51,0.00,,,0.00,Wunderground v.1.13,2013-02-11 17:55:00,
2013-02-11 13:00:00,52.4,34.8,29.81,South,180,9.0,9.0,51,0.00,,,0.00,Wunderground v.1.13,2013-02-11 18:00:00,
2013-02-11 13:05:00,52.2,33.6,29.81,WSW,246,10.0,17.0,49,0.00,,,0.00,Wunderground v.1.13,2013-02-11 18:05:00,
2013-02-11 13:10:00,51.2,32.7,29.81,South,185,13.0,13.0,49,0.00,,,0.00,Wunderground v.1.13,2013-02-11 18:10:00,
2013-02-11 13:15:00,50.6,30.6,29.81,South,175,15.0,19.0,46,0.00,,,0.00,Wunderground v.1.13,2013-02-11 18:15:00,
2013-02-11 13:20:00,50.6,32.6,29.81,NNW,339,16.0,16.0,50,0.00,,,0.00,Wunderground v.1.13,2013-02-11 18:20:00,
2013-02-11 13:30:00,51.0,33.0,29.81,South,188,11.0,15.0,50,0.00,,,0.00,Wunderground v.1.13,2013-02-11 18:30:00,
2013-02-11 13:35:00,50.6,33.1,29.81,NW,310,11.0,11.0,51,0.00,,,0.00,Wunderground v.1.13,2013-02-11 18:35:00,
2013-02-11 13:40:00,50.7,33.7,29.81,SSW,209,11.0,11.0,52,0.00,,,0.00,Wunderground v.1.13,2013-02-11 18:40:00,
2013-02-11 13:45:00,50.6,33.1,29.81,SW,233,10.0,16.0,51,0.00,,,0.00,Wunderground v.1.13,2013-02-11 18:45:00,
2013-02-11 13:50:00,50.4,32.4,29.82,NNW,339,10.0,10.0,50,0.00,,,0.00,Wunderground v.1.13,2013-02-11 18:50:00,
2013-02-11 13:55:00,49.9,32.5,29.82,WNW,293,10.0,17.0,51,0.00,,,0.00,Wunderground v.1.13,2013-02-11 18:55:00,
2013-02-11 14:05:00,49.4,33.0,29.83,WNW,287,11.0,11.0,53,0.00,,,0.00,Wunderground v.1.13,2013-02-11 19:05:00,
2013-02-11 14:10:00,49.1,32.7,29.83,South,169,10.0,10.0,53,0.00,,,0.00,Wunderground v.1.13,2013-02-11 19:10:00,
2013-02-11 14:15:00,48.8,32.9,29.83,South,180,10.0,10.0,54,0.00,,,0.00,Wunderground v.1.13,2013-02-11 19:15:00,
2013-02-11 14:20:00,48.6,33.1,29.84,WSW,257,10.0,10.0,55,0.00,,,0.00,Wunderground v.1.13,2013-02-11 19:20:00,
2013-02-11 14:25:00,48.7,33.7,29.84,WSW,248,9.0,11.0,56,0.00,,,0.00,Wunderground v.1.13,2013-02-11 19:25:00,
2013-02-11 14:35:00,48.5,32.6,29.84,SSW,194,9.0,9.0,54,0.00,,,0.00,Wunderground v.1.13,2013-02-11 19:35:00,
2013-02-11 14:45:00,48.7,33.2,29.85,SW,218,8.0,8.0,55,0.00,,,0.00,Wunderground v.1.13,2013-02-11 19:45:00,
2013-02-11 14:55:00,48.2,31.9,29.85,South,178,10.0,10.0,53,0.00,,,0.00,Wunderground v.1.13,2013-02-11 19:55:00,
2013-02-11 15:00:00,47.8,31.9,29.85,West,267,11.0,11.0,54,0.00,,,0.00,Wunderground v.1.13,2013-02-11 20:00:00,
2013-02-11 15:05:00,47.4,32.0,29.85,West,272,12.0,12.0,55,0.00,,,0.00,Wunderground v.1.13,2013-02-11 20:05:00,
2013-02-11 15:10:00,47.5,32.6,29.86,West,273,10.0,10.0,56,0.00,,,0.00,Wunderground v.1.13,2013-02-11 20:10:00,
2013-02-11 15:15:00,47.5,32.1,29.86,NW,311,8.0,12.0,55,0.00,,,0.00,Wunderground v.1.13,2013-02-11 20:15:00,
2013-02-11 15:25:00,46.4,31.5,29.86,WSW,254,13.0,13.0,56,0.00,,,0.00,Wunderground v.1.13,2013-02-11 20:25:00,
2013-02-11 15:30:00,46.6,31.3,29.87,South,183,11.0,11.0,55,0.00,,,0.00,Wunderground v.1.13,2013-02-11 20:30:00,
2013-02-11 15:35:00,46.6,30.8,29.87,WSW,258,10.0,13.0,54,0.00,,,0.00,Wunderground v.1.13,2013-02-11 20:35:00,
2013-02-11 15:45:00,46.2,30.5,29.87,WSW,258,13.0,13.0,54,0.00,,,0.00,Wunderground v.1.13,2013-02-11 20:45:00,
2013-02-11 15:50:00,46.1,30.4,29.88,West,261,14.0,14.0,54,0.00,,,0.00,Wunderground v.1.13,2013-02-11 20:50:00,
2013-02-11 16:00:00,45.9,29.2,29.88,WNW,300,12.0,18.0,52,0.00,,,0.00,Wunderground v.1.13,2013-02-11 21:00:00,
2013-02-11 16:10:00,45.3,29.6,29.88,WSW,252,12.0,12.0,54,0.00,,,0.00,Wunderground v.1.13,2013-02-11 21:10:00,
2013-02-11 16:15:00,45.1,29.9,29.88,West,269,12.0,13.0,55,0.00,,,0.00,Wunderground v.1.13,2013-02-11 21:15:00,
2013-02-11 16:20:00,45.1,29.9,29.88,SSW,193,10.0,10.0,55,0.00,,,0.00,Wunderground v.1.13,2013-02-11 21:20:00,
2013-02-11 16:25:00,44.9,30.1,29.89,WNW,286,9.0,13.0,56,0.00,,,0.00,Wunderground v.1.13,2013-02-11 21:25:00,
2013-02-11 16:35:00,44.6,29.9,29.89,WNW,292,10.0,10.0,56,0.00,,,0.00,Wunderground v.1.13,2013-02-11 21:35:00,
2013-02-11 16:40:00,44.5,30.2,29.89,West,266,9.0,15.0,57,0.00,,,0.00,Wunderground v.1.13,2013-02-11 21:40:00,
2013-02-11 16:45:00,44.5,30.2,29.89,WSW,246,8.0,8.0,57,0.00,,,0.00,Wunderground v.1.13,2013-02-11 21:45:00,
2013-02-11 16:50:00,44.5,30.2,29.89,WNW,292,8.0,8.0,57,0.00,,,0.00,Wunderground v.1.13,2013-02-11 21:50:00,
2013-02-11 17:00:00,44.4,30.1,29.90,WNW,286,6.0,10.0,57,0.00,,,0.00,Wunderground v.1.13,2013-02-11 22:00:00,
2013-02-11 17:10:00,44.2,29.9,29.90,West,272,7.0,10.0,57,0.00,,,0.00,Wunderground v.1.13,2013-02-11 22:10:00,
2013-02-11 17:15:00,44.1,30.3,29.90,West,266,8.0,8.0,58,0.00,,,0.00,Wunderground v.1.13,2013-02-11 22:15:00,
2013-02-11 17:20:00,43.8,30.0,29.90,West,269,9.0,9.0,58,0.00,,,0.00,Wunderground v.1.13,2013-02-11 22:20:00,
2013-02-11 17:30:00,43.3,29.9,29.90,West,271,9.0,13.0,59,0.00,,,0.00,Wunderground v.1.13,2013-02-11 22:30:00,
2013-02-11 17:35:00,43.2,29.8,29.91,WNW,296,9.0,9.0,59,0.00,,,0.00,Wunderground v.1.13,2013-02-11 22:35:00,
2013-02-11 17:40:00,43.1,29.7,29.91,West,278,9.0,9.0,59,0.00,,,0.00,Wunderground v.1.13,2013-02-11 22:40:00,
2013-02-11 17:45:00,43.1,29.7,29.91,West,264,9.0,9.0,59,0.00,,,0.00,Wunderground v.1.13,2013-02-11 22:45:00,
2013-02-11 17:55:00,42.9,30.0,29.91,West,273,8.0,8.0,60,0.00,,,0.00,Wunderground v.1.13,2013-02-11 22:55:00,
2013-02-11 18:00:00,42.9,30.0,29.91,West,259,7.0,7.0,60,0.00,,,0.00,Wunderground v.1.13,2013-02-11 23:00:00,
2013-02-11 18:05:00,42.9,30.0,29.91,West,264,6.0,9.0,60,0.00,,,0.00,Wunderground v.1.13,2013-02-11 23:05:00,
2013-02-11 18:15:00,42.9,30.0,29.92,West,278,6.0,6.0,60,0.00,,,0.00,Wunderground v.1.13,2013-02-11 23:15:00,
2013-02-11 18:20:00,42.7,29.8,29.92,West,269,7.0,8.0,60,0.00,,,0.00,Wunderground v.1.13,2013-02-11 23:20:00,
2013-02-11 18:25:00,42.7,29.4,29.92,West,268,8.0,8.0,59,0.00,,,0.00,Wunderground v.1.13,2013-02-11 23:25:00,
2013-02-11 18:35:00,42.4,29.5,29.93,SW,227,9.0,9.0,60,0.00,,,0.00,Wunderground v.1.13,2013-02-11 23:35:00,
2013-02-11 18:40:00,42.3,29.4,29.93,West,273,8.0,9.0,60,0.00,,,0.00,Wunderground v.1.13,2013-02-11 23:40:00,
2013-02-11 18:45:00,42.1,29.6,29.93,WNW,282,9.0,9.0,61,0.00,,,0.00,Wunderground v.1.13,2013-02-11 23:45:00,
2013-02-11 18:50:00,41.8,29.7,29.93,West,279,9.0,11.0,62,0.00,,,0.00,Wunderground v.1.13,2013-02-11 23:50:00,
2013-02-11 18:55:00,41.6,29.9,29.94,West,277,10.0,10.0,63,0.00,,,0.00,Wunderground v.1.13,2013-02-11 23:55:00,
2013-02-11 19:05:00,41.1,30.2,29.95,West,279,10.0,10.0,65,0.00,,,0.00,Wunderground v.1.13,2013-02-12 00:05:00,
2013-02-11 19:10:00,40.8,29.9,29.95,West,281,11.0,11.0,65,0.00,,,0.00,Wunderground v.1.13,2013-02-12 00:10:00,
2013-02-11 19:15:00,40.5,30.0,29.95,West,280,11.0,11.0,66,0.00,,,0.00,Wunderground v.1.13,2013-02-12 00:15:00,
2013-02-11 19:20:00,40.2,30.1,29.95,West,279,12.0,12.0,67,0.00,,,0.00,Wunderground v.1.13,2013-02-12 00:20:00,
2013-02-11 19:25:00,40.0,29.9,29.95,WNW,298,11.0,12.0,67,0.00,,,0.00,Wunderground v.1.13,2013-02-12 00:25:00,
2013-02-11 19:30:00,39.8,30.1,29.96,West,279,11.0,11.0,68,0.00,,,0.00,Wunderground v.1.13,2013-02-12 00:30:00,
2013-02-11 19:40:00,39.5,29.8,29.96,West,280,11.0,11.0,68,0.00,,,0.00,Wunderground v.1.13,2013-02-12 00:40:00,
2013-02-11 19:45:00,39.4,29.7,29.96,NW,307,9.0,9.0,68,0.00,,,0.00,Wunderground v.1.13,2013-02-12 00:45:00,
2013-02-11 19:50:00,39.4,29.7,29.97,West,281,10.0,10.0,68,0.00,,,0.00,Wunderground v.1.13,2013-02-12 00:50:00,
2013-02-11 19:55:00,39.3,29.6,29.97,WSW,255,10.0,12.0,68,0.00,,,0.00,Wunderground v.1.13,2013-02-12 00:55:00,
2013-02-11 20:05:00,38.9,29.6,29.97,WNW,288,10.0,10.0,69,0.00,,,0.00,Wunderground v.1.13,2013-02-12 01:05:00,
2013-02-11 20:10:00,38.8,29.5,29.97,West,280,10.0,11.0,69,0.00,,,0.00,Wunderground v.1.13,2013-02-12 01:10:00,
2013-02-11 20:15:00,38.8,29.1,29.97,SW,216,11.0,11.0,68,0.00,,,0.00,Wunderground v.1.13,2013-02-12 01:15:00,
2013-02-11 20:25:00,38.7,29.0,29.98,West,268,10.0,10.0,68,0.00,,,0.00,Wunderground v.1.13,2013-02-12 01:25:00,
2013-02-11 20:30:00,38.7,29.0,29.97,WSW,258,10.0,10.0,68,0.00,,,0.00,Wunderground v.1.13,2013-02-12 01:30:00,
2013-02-11 20:35:00,38.7,29.0,29.97,WSW,253,9.0,9.0,68,0.00,,,0.00,Wunderground v.1.13,2013-02-12 01:35:00,
2013-02-11 20:45:00,38.5,28.9,29.97,West,279,7.0,7.0,68,0.00,,,0.00,Wunderground v.1.13,2013-02-12 01:45:00,
2013-02-11 20:50:00,38.5,28.9,29.98,West,278,6.0,8.0,68,0.00,,,0.00,Wunderground v.1.13,2013-02-12 01:50:00,
2013-02-11 20:55:00,38.6,28.9,29.98,WSW,254,5.0,5.0,68,0.00,,,0.00,Wunderground v.1.13,2013-02-12 01:55:00,
2013-02-11 21:00:00,38.7,28.7,29.98,West,274,6.0,6.0,67,0.00,,,0.00,Wunderground v.1.13,2013-02-12 02:00:00,
2013-02-11 21:10:00,38.8,28.4,29.98,WSW,249,6.0,6.0,66,0.00,,,0.00,Wunderground v.1.13,2013-02-12 02:10:00,
2013-02-11 21:15:00,38.9,28.5,29.98,WSW,248,6.0,7.0,66,0.00,,,0.00,Wunderground v.1.13,2013-02-12 02:15:00,
2013-02-11 21:25:00,39.1,28.3,29.98,SW,231,4.0,5.0,65,0.00,,,0.00,Wunderground v.1.13,2013-02-12 02:25:00,
2013-02-11 21:30:00,39.1,28.3,29.98,West,273,5.0,11.0,65,0.00,,,0.00,Wunderground v.1.13,2013-02-12 02:30:00,
2013-02-11 21:35:00,39.2,28.0,29.99,West,273,6.0,6.0,64,0.00,,,0.00,Wunderground v.1.13,2013-02-12 02:35:00,
2013-02-11 21:40:00,39.4,28.2,29.99,WSW,254,7.0,10.0,64,0.00,,,0.00,Wunderground v.1.13,2013-02-12 02:40:00,
2013-02-11 21:45:00,39.5,27.9,29.98,West,263,7.0,12.0,63,0.00,,,0.00,Wunderground v.1.13,2013-02-12 02:45:00,
2013-02-11 21:55:00,39.5,27.5,29.99,NW,315,9.0,9.0,62,0.00,,,0.00,Wunderground v.1.13,2013-02-12 02:55:00,
2013-02-11 22:00:00,39.5,27.9,29.99,West,259,8.0,15.0,63,0.00,,,0.00,Wunderground v.1.13,2013-02-12 03:00:00,
2013-02-11 22:05:00,39.5,27.9,29.99,WNW,285,8.0,10.0,63,0.00,,,0.00,Wunderground v.1.13,2013-02-12 03:05:00,
2013-02-11 22:10:00,39.4,27.5,29.99,NW,306,9.0,9.0,62,0.00,,,0.00,Wunderground v.1.13,2013-02-12 03:10:00,
2013-02-11 22:15:00,39.3,27.4,29.99,SSW,193,10.0,13.0,62,0.00,,,0.00,Wunderground v.1.13,2013-02-12 03:15:00,
2013-02-11 22:25:00,39.2,27.7,29.99,West,273,10.0,10.0,63,0.00,,,0.00,Wunderground v.1.13,2013-02-12 03:25:00,
2013-02-11 22:35:00,39.0,27.5,30.00,NW,310,9.0,12.0,63,0.00,,,0.00,Wunderground v.1.13,2013-02-12 03:35:00,
2013-02-11 22:40:00,38.9,27.4,30.00,WNW,288,10.0,10.0,63,0.00,,,0.00,Wunderground v.1.13,2013-02-12 03:40:00,
2013-02-11 22:50:00,38.8,27.3,30.00,West,270,7.0,8.0,63,0.00,,,0.00,Wunderground v.1.13,2013-02-12 03:50:00,
2013-02-11 22:55:00,38.8,27.3,30.00,West,270,8.0,12.0,63,0.00,,,0.00,Wunderground v.1.13,2013-02-12 03:55:00,
2013-02-11 23:00:00,38.7,27.2,30.00,West,274,9.0,9.0,63,0.00,,,0.00,Wunderground v.1.13,2013-02-12 04:00:00,
2013-02-11 23:05:00,38.7,27.6,30.00,WNW,286,8.0,8.0,64,0.00,,,0.00,Wunderground v.1.13,2013-02-12 04:05:00,
2013-02-11 23:10:00,38.7,27.6,30.00,WSW,258,6.0,11.0,64,0.00,,,0.00,Wunderground v.1.13,2013-02-12 04:10:00,
2013-02-11 23:20:00,38.6,27.5,30.00,West,276,7.0,7.0,64,0.00,,,0.00,Wunderground v.1.13,2013-02-12 04:20:00,
2013-02-11 23:30:00,38.6,27.8,30.01,West,277,6.0,6.0,65,0.00,,,0.00,Wunderground v.1.13,2013-02-12 04:30:00,
2013-02-11 23:35:00,38.5,27.7,30.01,West,275,5.0,5.0,65,0.00,,,0.00,Wunderground v.1.13,2013-02-12 04:35:00,
2013-02-11 23:40:00,38.5,27.7,30.01,WNW,282,6.0,8.0,65,0.00,,,0.00,Wunderground v.1.13,2013-02-12 04:40:00,
2013-02-11 23:45:00,38.5,28.1,30.01,West,276,6.0,6.0,66,0.00,,,0.00,Wunderground v.1.13,2013-02-12 04:45:00,
2013-02-11 23:50:00,38.5,27.7,30.01,West,267,5.0,5.0,65,0.00,,,0.00,Wunderground v.1.13,2013-02-12 04:50:00,
2013-02-11 23:55:00,38.5,27.4,30.01,SW,215,5.0,5.0,64,0.00,,,0.00,Wunderground v.1.13,2013-02-12 04:55:00,